sensor_id;sensor_type;location;lat;lon;timestamp;temperature;humidity
34492;DHT22;20737;49.908;8.126;2022-12-18T00:00:08;-5.50;99.90
34492;DHT22;20737;49.908;8.126;2022-12-18T00:02:35;-5.50;99.90
34492;DHT22;20737;49.908;8.126;2022-12-18T00:05:02;-5.50;99.90
34492;DHT22;20737;49.908;8.126;2022-12-18T00:07:29;-5.50;99.90
34492;DHT22;20737;49.908;8.126;2022-12-18T00:09:56;-5.60;99.90
34492;DHT22;20737;49.908;8.126;2022-12-18T00:12:23;-5.60;99.90
34492;DHT22;20737;49.908;8.126;2022-12-18T00:14:51;-5.60;99.90
34492;DHT22;20737;49.908;8.126;2022-12-18T00:17:17;-5.60;99.90
34492;DHT22;20737;49.908;8.126;2022-12-18T00:19:44;-5.70;99.90
34492;DHT22;20737;49.908;8.126;2022-12-18T00:22:11;-5.70;99.90
34492;DHT22;20737;49.908;8.126;2022-12-18T00:24:37;-5.70;99.90
34492;DHT22;20737;49.908;8.126;2022-12-18T00:27:04;-5.80;99.90
34492;DHT22;20737;49.908;8.126;2022-12-18T00:29:31;-5.70;99.90
34492;DHT22;20737;49.908;8.126;2022-12-18T00:31:59;-5.70;99.90
34492;DHT22;20737;49.908;8.126;2022-12-18T00:34:26;-5.80;99.90
34492;DHT22;20737;49.908;8.126;2022-12-18T00:36:53;-5.90;99.90
34492;DHT22;20737;49.908;8.126;2022-12-18T00:39:19;-6.00;99.90
34492;DHT22;20737;49.908;8.126;2022-12-18T00:41:46;-6.10;99.90
34492;DHT22;20737;49.908;8.126;2022-12-18T00:44:30;-6.10;99.90
34492;DHT22;20737;49.908;8.126;2022-12-18T00:46:58;-6.20;99.90
34492;DHT22;20737;49.908;8.126;2022-12-18T00:49:25;-6.20;99.90
34492;DHT22;20737;49.908;8.126;2022-12-18T00:51:52;-6.30;99.90
34492;DHT22;20737;49.908;8.126;2022-12-18T00:54:18;-6.40;99.90
34492;DHT22;20737;49.908;8.126;2022-12-18T00:56:45;-6.40;99.90
34492;DHT22;20737;49.908;8.126;2022-12-18T00:59:12;-6.40;99.90
34492;DHT22;20737;49.908;8.126;2022-12-18T01:01:39;-6.50;99.90
34492;DHT22;20737;49.908;8.126;2022-12-18T01:04:07;-6.50;99.90
34492;DHT22;20737;49.908;8.126;2022-12-18T01:06:33;-6.40;99.90
34492;DHT22;20737;49.908;8.126;2022-12-18T01:09:00;-6.40;99.90
34492;DHT22;20737;49.908;8.126;2022-12-18T01:11:27;-6.40;99.90
34492;DHT22;20737;49.908;8.126;2022-12-18T01:13:54;-6.50;99.90
34492;DHT22;20737;49.908;8.126;2022-12-18T01:16:25;-6.50;99.90
34492;DHT22;20737;49.908;8.126;2022-12-18T01:18:52;-6.50;99.90
34492;DHT22;20737;49.908;8.126;2022-12-18T01:21:22;-6.40;99.90
34492;DHT22;20737;49.908;8.126;2022-12-18T01:23:51;-6.40;99.90
34492;DHT22;20737;49.908;8.126;2022-12-18T01:26:19;-6.40;99.90
34492;DHT22;20737;49.908;8.126;2022-12-18T01:28:45;-6.50;99.90
34492;DHT22;20737;49.908;8.126;2022-12-18T01:31:15;-6.50;99.90
34492;DHT22;20737;49.908;8.126;2022-12-18T01:33:42;-6.40;99.90
34492;DHT22;20737;49.908;8.126;2022-12-18T01:36:15;-6.40;99.90
34492;DHT22;20737;49.908;8.126;2022-12-18T01:38:44;-6.50;99.90
34492;DHT22;20737;49.908;8.126;2022-12-18T01:41:11;-6.60;99.90
34492;DHT22;20737;49.908;8.126;2022-12-18T01:43:47;-6.60;99.90
34492;DHT22;20737;49.908;8.126;2022-12-18T01:46:15;-6.70;99.90
34492;DHT22;20737;49.908;8.126;2022-12-18T01:48:42;-6.70;99.90
34492;DHT22;20737;49.908;8.126;2022-12-18T01:51:11;-6.80;99.90
34492;DHT22;20737;49.908;8.126;2022-12-18T01:53:40;-6.90;99.90
34492;DHT22;20737;49.908;8.126;2022-12-18T01:56:10;-6.90;99.90
34492;DHT22;20737;49.908;8.126;2022-12-18T01:58:43;-7.00;99.90
34492;DHT22;20737;49.908;8.126;2022-12-18T02:01:12;-7.00;99.90
34492;DHT22;20737;49.908;8.126;2022-12-18T02:03:41;-7.10;99.90
34492;DHT22;20737;49.908;8.126;2022-12-18T02:06:12;-7.10;99.90
34492;DHT22;20737;49.908;8.126;2022-12-18T02:08:48;-7.20;99.90
34492;DHT22;20737;49.908;8.126;2022-12-18T02:11:26;-7.20;99.90
34492;DHT22;20737;49.908;8.126;2022-12-18T02:14:04;-7.20;99.90
34492;DHT22;20737;49.908;8.126;2022-12-18T02:16:39;-7.30;99.90
34492;DHT22;20737;49.908;8.126;2022-12-18T02:19:21;-7.30;99.90
34492;DHT22;20737;49.908;8.126;2022-12-18T02:21:57;-7.40;99.90
34492;DHT22;20737;49.908;8.126;2022-12-18T02:24:31;-7.30;99.90
34492;DHT22;20737;49.908;8.126;2022-12-18T02:27:04;-7.40;99.90
34492;DHT22;20737;49.908;8.126;2022-12-18T02:29:36;-7.40;99.90
34492;DHT22;20737;49.908;8.126;2022-12-18T02:32:07;-7.40;99.90
34492;DHT22;20737;49.908;8.126;2022-12-18T02:34:38;-7.40;99.90
34492;DHT22;20737;49.908;8.126;2022-12-18T02:37:07;-7.40;99.90
34492;DHT22;20737;49.908;8.126;2022-12-18T02:39:37;-7.50;99.90
34492;DHT22;20737;49.908;8.126;2022-12-18T02:42:06;-7.60;99.90
34492;DHT22;20737;49.908;8.126;2022-12-18T02:44:33;-7.60;99.90
34492;DHT22;20737;49.908;8.126;2022-12-18T02:47:01;-7.60;99.90
34492;DHT22;20737;49.908;8.126;2022-12-18T02:49:34;-7.70;99.90
34492;DHT22;20737;49.908;8.126;2022-12-18T02:52:07;-7.60;99.90
34492;DHT22;20737;49.908;8.126;2022-12-18T02:54:47;-7.60;99.90
34492;DHT22;20737;49.908;8.126;2022-12-18T02:57:22;-7.70;99.90
34492;DHT22;20737;49.908;8.126;2022-12-18T02:59:56;-7.60;99.90
34492;DHT22;20737;49.908;8.126;2022-12-18T03:02:29;-7.60;99.90
34492;DHT22;20737;49.908;8.126;2022-12-18T03:05:03;-7.60;99.90
34492;DHT22;20737;49.908;8.126;2022-12-18T03:07:37;-7.60;99.90
34492;DHT22;20737;49.908;8.126;2022-12-18T03:10:07;-7.60;99.90
34492;DHT22;20737;49.908;8.126;2022-12-18T03:12:40;-7.70;99.90
34492;DHT22;20737;49.908;8.126;2022-12-18T03:15:13;-7.70;99.90
34492;DHT22;20737;49.908;8.126;2022-12-18T03:17:45;-7.70;99.90
34492;DHT22;20737;49.908;8.126;2022-12-18T03:20:14;-7.70;99.90
34492;DHT22;20737;49.908;8.126;2022-12-18T03:22:46;-7.80;99.90
34492;DHT22;20737;49.908;8.126;2022-12-18T03:25:18;-7.70;99.90
34492;DHT22;20737;49.908;8.126;2022-12-18T03:27:48;-7.80;99.90
34492;DHT22;20737;49.908;8.126;2022-12-18T03:30:16;-7.80;99.90
34492;DHT22;20737;49.908;8.126;2022-12-18T03:32:47;-7.80;99.90
34492;DHT22;20737;49.908;8.126;2022-12-18T03:35:20;-7.80;99.90
34492;DHT22;20737;49.908;8.126;2022-12-18T03:37:48;-7.80;99.90
34492;DHT22;20737;49.908;8.126;2022-12-18T03:40:15;-7.80;99.90
34492;DHT22;20737;49.908;8.126;2022-12-18T03:42:48;-7.90;99.90
34492;DHT22;20737;49.908;8.126;2022-12-18T03:45:22;-7.90;99.90
34492;DHT22;20737;49.908;8.126;2022-12-18T03:47:58;-8.00;99.90
34492;DHT22;20737;49.908;8.126;2022-12-18T03:50:34;-8.00;99.90
34492;DHT22;20737;49.908;8.126;2022-12-18T03:53:10;-8.00;99.90
34492;DHT22;20737;49.908;8.126;2022-12-18T03:55:39;-8.10;99.90
34492;DHT22;20737;49.908;8.126;2022-12-18T03:58:08;-8.10;99.90
34492;DHT22;20737;49.908;8.126;2022-12-18T04:00:37;-8.10;99.90
34492;DHT22;20737;49.908;8.126;2022-12-18T04:03:05;-8.10;99.90
34492;DHT22;20737;49.908;8.126;2022-12-18T04:05:33;-8.10;99.90
34492;DHT22;20737;49.908;8.126;2022-12-18T04:08:01;-8.10;99.90
34492;DHT22;20737;49.908;8.126;2022-12-18T04:10:28;-8.00;99.90
34492;DHT22;20737;49.908;8.126;2022-12-18T04:12:56;-8.00;99.90
34492;DHT22;20737;49.908;8.126;2022-12-18T04:15:24;-8.10;99.90
34492;DHT22;20737;49.908;8.126;2022-12-18T04:17:51;-8.10;99.90
34492;DHT22;20737;49.908;8.126;2022-12-18T04:20:18;-8.20;99.90
34492;DHT22;20737;49.908;8.126;2022-12-18T04:22:45;-8.20;99.90
34492;DHT22;20737;49.908;8.126;2022-12-18T04:25:12;-8.20;99.90
34492;DHT22;20737;49.908;8.126;2022-12-18T04:27:39;-8.10;99.90
34492;DHT22;20737;49.908;8.126;2022-12-18T04:30:07;-8.20;99.90
34492;DHT22;20737;49.908;8.126;2022-12-18T04:32:35;-8.30;99.90
34492;DHT22;20737;49.908;8.126;2022-12-18T04:35:04;-8.40;99.90
34492;DHT22;20737;49.908;8.126;2022-12-18T04:37:35;-8.40;99.90
34492;DHT22;20737;49.908;8.126;2022-12-18T04:40:04;-8.40;99.90
34492;DHT22;20737;49.908;8.126;2022-12-18T04:42:31;-8.50;99.90
34492;DHT22;20737;49.908;8.126;2022-12-18T04:44:57;-8.50;99.90
34492;DHT22;20737;49.908;8.126;2022-12-18T04:47:24;-8.60;99.90
34492;DHT22;20737;49.908;8.126;2022-12-18T04:49:52;-8.70;99.90
34492;DHT22;20737;49.908;8.126;2022-12-18T04:52:19;-8.80;99.90
34492;DHT22;20737;49.908;8.126;2022-12-18T04:54:46;-8.90;99.90
34492;DHT22;20737;49.908;8.126;2022-12-18T04:57:13;-9.10;99.90
34492;DHT22;20737;49.908;8.126;2022-12-18T04:59:40;-9.00;99.90
34492;DHT22;20737;49.908;8.126;2022-12-18T05:02:06;-9.10;99.90
34492;DHT22;20737;49.908;8.126;2022-12-18T05:04:33;-9.20;99.90
34492;DHT22;20737;49.908;8.126;2022-12-18T05:07:01;-9.20;99.90
34492;DHT22;20737;49.908;8.126;2022-12-18T05:09:28;-9.20;99.90
34492;DHT22;20737;49.908;8.126;2022-12-18T05:11:54;-9.30;99.90
34492;DHT22;20737;49.908;8.126;2022-12-18T05:14:21;-9.30;99.90
34492;DHT22;20737;49.908;8.126;2022-12-18T05:16:48;-9.40;99.90
34492;DHT22;20737;49.908;8.126;2022-12-18T05:19:15;-9.40;99.90
34492;DHT22;20737;49.908;8.126;2022-12-18T05:21:42;-9.40;99.90
34492;DHT22;20737;49.908;8.126;2022-12-18T05:24:10;-9.40;99.90
34492;DHT22;20737;49.908;8.126;2022-12-18T05:26:37;-9.40;99.90
34492;DHT22;20737;49.908;8.126;2022-12-18T05:29:03;-9.40;99.90
34492;DHT22;20737;49.908;8.126;2022-12-18T05:31:30;-9.50;99.90
34492;DHT22;20737;49.908;8.126;2022-12-18T05:33:57;-9.50;99.90
34492;DHT22;20737;49.908;8.126;2022-12-18T05:36:24;-9.50;99.90
34492;DHT22;20737;49.908;8.126;2022-12-18T05:38:51;-9.50;99.90
34492;DHT22;20737;49.908;8.126;2022-12-18T05:41:19;-9.50;99.90
34492;DHT22;20737;49.908;8.126;2022-12-18T05:43:46;-9.60;99.90
34492;DHT22;20737;49.908;8.126;2022-12-18T05:46:14;-9.60;99.90
34492;DHT22;20737;49.908;8.126;2022-12-18T05:48:42;-9.60;99.90
34492;DHT22;20737;49.908;8.126;2022-12-18T05:51:11;-9.60;99.90
34492;DHT22;20737;49.908;8.126;2022-12-18T05:53:38;-9.60;99.90
34492;DHT22;20737;49.908;8.126;2022-12-18T05:56:07;-9.70;99.90
34492;DHT22;20737;49.908;8.126;2022-12-18T05:58:35;-9.70;99.90
34492;DHT22;20737;49.908;8.126;2022-12-18T06:01:07;-9.70;99.90
34492;DHT22;20737;49.908;8.126;2022-12-18T06:03:35;-9.80;99.90
34492;DHT22;20737;49.908;8.126;2022-12-18T06:06:02;-9.80;99.90
34492;DHT22;20737;49.908;8.126;2022-12-18T06:08:29;-9.80;99.90
34492;DHT22;20737;49.908;8.126;2022-12-18T06:10:55;-9.90;99.90
34492;DHT22;20737;49.908;8.126;2022-12-18T06:13:22;-10.00;99.90
34492;DHT22;20737;49.908;8.126;2022-12-18T06:15:50;-10.10;99.90
34492;DHT22;20737;49.908;8.126;2022-12-18T06:18:17;-10.10;99.90
34492;DHT22;20737;49.908;8.126;2022-12-18T06:20:44;-10.10;99.90
34492;DHT22;20737;49.908;8.126;2022-12-18T06:23:10;-10.10;99.90
34492;DHT22;20737;49.908;8.126;2022-12-18T06:25:38;-10.20;99.90
34492;DHT22;20737;49.908;8.126;2022-12-18T06:28:05;-10.20;99.90
34492;DHT22;20737;49.908;8.126;2022-12-18T06:30:32;-10.10;99.90
34492;DHT22;20737;49.908;8.126;2022-12-18T06:33:00;-10.10;99.90
34492;DHT22;20737;49.908;8.126;2022-12-18T06:35:27;-10.20;99.90
34492;DHT22;20737;49.908;8.126;2022-12-18T06:37:54;-10.20;99.90
34492;DHT22;20737;49.908;8.126;2022-12-18T06:40:20;-10.10;99.90
34492;DHT22;20737;49.908;8.126;2022-12-18T06:42:47;-10.20;99.90
34492;DHT22;20737;49.908;8.126;2022-12-18T06:45:14;-10.20;99.90
34492;DHT22;20737;49.908;8.126;2022-12-18T06:47:41;-10.10;99.90
34492;DHT22;20737;49.908;8.126;2022-12-18T06:50:09;-10.20;99.90
34492;DHT22;20737;49.908;8.126;2022-12-18T06:52:36;-10.20;99.90
34492;DHT22;20737;49.908;8.126;2022-12-18T06:55:05;-10.20;99.90
34492;DHT22;20737;49.908;8.126;2022-12-18T06:57:37;-10.20;99.90
34492;DHT22;20737;49.908;8.126;2022-12-18T07:00:06;-10.10;99.90
34492;DHT22;20737;49.908;8.126;2022-12-18T07:02:33;-10.20;99.90
34492;DHT22;20737;49.908;8.126;2022-12-18T07:05:00;-10.10;99.90
34492;DHT22;20737;49.908;8.126;2022-12-18T07:07:28;-10.10;99.90
34492;DHT22;20737;49.908;8.126;2022-12-18T07:09:55;-10.10;99.90
34492;DHT22;20737;49.908;8.126;2022-12-18T07:12:22;-10.10;99.90
34492;DHT22;20737;49.908;8.126;2022-12-18T07:14:48;-10.10;99.90
34492;DHT22;20737;49.908;8.126;2022-12-18T07:17:15;-10.10;99.90
34492;DHT22;20737;49.908;8.126;2022-12-18T07:19:42;-10.10;99.90
34492;DHT22;20737;49.908;8.126;2022-12-18T07:22:09;-10.10;99.90
34492;DHT22;20737;49.908;8.126;2022-12-18T07:24:37;-10.10;99.90
34492;DHT22;20737;49.908;8.126;2022-12-18T07:27:03;-10.20;99.90
34492;DHT22;20737;49.908;8.126;2022-12-18T07:29:30;-10.10;99.90
34492;DHT22;20737;49.908;8.126;2022-12-18T07:31:57;-10.10;99.90
34492;DHT22;20737;49.908;8.126;2022-12-18T07:34:24;-10.10;99.90
34492;DHT22;20737;49.908;8.126;2022-12-18T07:36:50;-10.10;99.90
34492;DHT22;20737;49.908;8.126;2022-12-18T07:39:17;-10.10;99.90
34492;DHT22;20737;49.908;8.126;2022-12-18T07:41:45;-10.10;99.90
34492;DHT22;20737;49.908;8.126;2022-12-18T07:44:32;-10.10;99.90
34492;DHT22;20737;49.908;8.126;2022-12-18T07:46:59;-10.10;99.90
34492;DHT22;20737;49.908;8.126;2022-12-18T07:49:26;-10.00;99.90
34492;DHT22;20737;49.908;8.126;2022-12-18T07:51:54;-10.00;99.90
34492;DHT22;20737;49.908;8.126;2022-12-18T07:54:21;-10.00;99.90
34492;DHT22;20737;49.908;8.126;2022-12-18T07:56:49;-9.90;99.90
34492;DHT22;20737;49.908;8.126;2022-12-18T07:59:16;-10.00;99.90
34492;DHT22;20737;49.908;8.126;2022-12-18T08:01:43;-9.90;99.90
34492;DHT22;20737;49.908;8.126;2022-12-18T08:04:09;-9.80;99.90
34492;DHT22;20737;49.908;8.126;2022-12-18T08:06:36;-9.80;99.90
34492;DHT22;20737;49.908;8.126;2022-12-18T08:09:03;-9.60;99.90
34492;DHT22;20737;49.908;8.126;2022-12-18T08:11:30;-9.50;99.90
34492;DHT22;20737;49.908;8.126;2022-12-18T08:13:58;-9.40;99.90
34492;DHT22;20737;49.908;8.126;2022-12-18T08:16:25;-9.20;99.90
34492;DHT22;20737;49.908;8.126;2022-12-18T08:18:52;-9.10;99.90
34492;DHT22;20737;49.908;8.126;2022-12-18T08:21:21;-9.00;99.90
34492;DHT22;20737;49.908;8.126;2022-12-18T08:23:49;-8.90;99.90
34492;DHT22;20737;49.908;8.126;2022-12-18T08:26:16;-8.80;99.90
34492;DHT22;20737;49.908;8.126;2022-12-18T08:28:43;-8.70;99.90
34492;DHT22;20737;49.908;8.126;2022-12-18T08:31:11;-8.60;99.90
34492;DHT22;20737;49.908;8.126;2022-12-18T08:33:40;-8.50;99.90
34492;DHT22;20737;49.908;8.126;2022-12-18T08:36:08;-8.40;99.90
34492;DHT22;20737;49.908;8.126;2022-12-18T08:38:36;-8.30;99.90
34492;DHT22;20737;49.908;8.126;2022-12-18T08:41:04;-8.50;99.90
34492;DHT22;20737;49.908;8.126;2022-12-18T08:43:31;-8.40;99.90
34492;DHT22;20737;49.908;8.126;2022-12-18T08:46:17;-8.50;99.90
34492;DHT22;20737;49.908;8.126;2022-12-18T08:48:44;-8.40;99.90
34492;DHT22;20737;49.908;8.126;2022-12-18T08:51:11;-8.30;99.90
34492;DHT22;20737;49.908;8.126;2022-12-18T08:53:38;-8.00;99.90
34492;DHT22;20737;49.908;8.126;2022-12-18T08:56:06;-7.80;99.90
34492;DHT22;20737;49.908;8.126;2022-12-18T08:58:32;-7.50;99.90
34492;DHT22;20737;49.908;8.126;2022-12-18T09:01:00;-7.30;99.90
34492;DHT22;20737;49.908;8.126;2022-12-18T09:03:28;-7.10;99.90
34492;DHT22;20737;49.908;8.126;2022-12-18T09:05:55;-6.90;99.90
34492;DHT22;20737;49.908;8.126;2022-12-18T09:08:22;-6.70;99.90
34492;DHT22;20737;49.908;8.126;2022-12-18T09:10:49;-6.40;99.90
34492;DHT22;20737;49.908;8.126;2022-12-18T09:13:17;-6.40;99.90
34492;DHT22;20737;49.908;8.126;2022-12-18T09:15:45;-6.20;99.90
34492;DHT22;20737;49.908;8.126;2022-12-18T09:18:13;-6.20;99.90
34492;DHT22;20737;49.908;8.126;2022-12-18T09:20:41;-6.30;99.90
34492;DHT22;20737;49.908;8.126;2022-12-18T09:23:09;-6.40;99.90
34492;DHT22;20737;49.908;8.126;2022-12-18T09:25:36;-6.40;99.90
34492;DHT22;20737;49.908;8.126;2022-12-18T09:28:05;-6.20;99.90
34492;DHT22;20737;49.908;8.126;2022-12-18T09:30:32;-5.90;99.90
34492;DHT22;20737;49.908;8.126;2022-12-18T09:32:59;-5.80;99.90
34492;DHT22;20737;49.908;8.126;2022-12-18T09:35:26;-5.70;99.90
34492;DHT22;20737;49.908;8.126;2022-12-18T09:37:54;-5.50;99.90
34492;DHT22;20737;49.908;8.126;2022-12-18T09:40:23;-5.30;99.90
34492;DHT22;20737;49.908;8.126;2022-12-18T09:42:55;-5.00;99.90
34492;DHT22;20737;49.908;8.126;2022-12-18T09:45:23;-4.50;99.90
34492;DHT22;20737;49.908;8.126;2022-12-18T09:47:52;-3.80;99.90
34492;DHT22;20737;49.908;8.126;2022-12-18T09:50:24;-2.80;99.90
34492;DHT22;20737;49.908;8.126;2022-12-18T09:52:57;-1.40;99.90
34492;DHT22;20737;49.908;8.126;2022-12-18T09:55:30;0.00;99.90
34492;DHT22;20737;49.908;8.126;2022-12-18T09:58:02;1.50;99.90
34492;DHT22;20737;49.908;8.126;2022-12-18T10:00:31;2.60;99.90
34492;DHT22;20737;49.908;8.126;2022-12-18T10:03:00;3.90;99.80
34492;DHT22;20737;49.908;8.126;2022-12-18T10:05:33;4.90;96.80
34492;DHT22;20737;49.908;8.126;2022-12-18T10:08:08;5.90;91.70
34492;DHT22;20737;49.908;8.126;2022-12-18T10:10:42;6.40;87.30
34492;DHT22;20737;49.908;8.126;2022-12-18T10:16:35;7.80;77.40
34492;DHT22;20737;49.908;8.126;2022-12-18T10:19:21;7.40;78.50
34492;DHT22;20737;49.908;8.126;2022-12-18T10:21:57;6.40;79.50
34492;DHT22;20737;49.908;8.126;2022-12-18T10:24:33;5.30;84.00
34492;DHT22;20737;49.908;8.126;2022-12-18T10:27:12;4.40;88.90
34492;DHT22;20737;49.908;8.126;2022-12-18T10:29:39;3.20;92.30
34492;DHT22;20737;49.908;8.126;2022-12-18T10:32:07;2.90;94.50
34492;DHT22;20737;49.908;8.126;2022-12-18T10:34:35;2.40;96.10
34492;DHT22;20737;49.908;8.126;2022-12-18T10:37:06;2.20;98.60
34492;DHT22;20737;49.908;8.126;2022-12-18T10:39:39;1.90;99.40
34492;DHT22;20737;49.908;8.126;2022-12-18T10:42:13;1.90;99.90
34492;DHT22;20737;49.908;8.126;2022-12-18T10:44:42;1.80;99.90
34492;DHT22;20737;49.908;8.126;2022-12-18T10:47:14;1.50;99.90
34492;DHT22;20737;49.908;8.126;2022-12-18T10:49:47;1.20;99.90
34492;DHT22;20737;49.908;8.126;2022-12-18T10:52:18;1.00;99.90
34492;DHT22;20737;49.908;8.126;2022-12-18T10:54:52;0.60;99.90
34492;DHT22;20737;49.908;8.126;2022-12-18T10:57:40;0.30;99.90
34492;DHT22;20737;49.908;8.126;2022-12-18T11:00:25;0.50;99.90
34492;DHT22;20737;49.908;8.126;2022-12-18T11:02:54;0.80;99.90
34492;DHT22;20737;49.908;8.126;2022-12-18T11:05:27;0.90;99.90
34492;DHT22;20737;49.908;8.126;2022-12-18T11:07:54;1.60;99.90
34492;DHT22;20737;49.908;8.126;2022-12-18T11:10:26;1.50;99.90
34492;DHT22;20737;49.908;8.126;2022-12-18T11:12:54;2.10;99.90
34492;DHT22;20737;49.908;8.126;2022-12-18T11:15:24;2.20;99.90
34492;DHT22;20737;49.908;8.126;2022-12-18T11:17:53;1.90;99.90
34492;DHT22;20737;49.908;8.126;2022-12-18T11:20:24;2.10;99.90
34492;DHT22;20737;49.908;8.126;2022-12-18T11:22:57;1.60;99.90
34492;DHT22;20737;49.908;8.126;2022-12-18T11:25:26;1.30;99.90
34492;DHT22;20737;49.908;8.126;2022-12-18T11:27:55;1.30;99.90
34492;DHT22;20737;49.908;8.126;2022-12-18T11:30:24;1.20;99.90
34492;DHT22;20737;49.908;8.126;2022-12-18T11:32:55;1.10;99.90
34492;DHT22;20737;49.908;8.126;2022-12-18T11:35:32;0.60;99.90
34492;DHT22;20737;49.908;8.126;2022-12-18T11:38:06;0.50;99.90
34492;DHT22;20737;49.908;8.126;2022-12-18T11:40:41;0.10;99.90
34492;DHT22;20737;49.908;8.126;2022-12-18T11:43:13;0.10;99.90
34492;DHT22;20737;49.908;8.126;2022-12-18T11:45:45;-0.20;99.90
34492;DHT22;20737;49.908;8.126;2022-12-18T11:48:17;-0.10;99.90
34492;DHT22;20737;49.908;8.126;2022-12-18T11:50:49;-0.20;99.90
34492;DHT22;20737;49.908;8.126;2022-12-18T11:53:17;-0.40;99.90
34492;DHT22;20737;49.908;8.126;2022-12-18T11:55:56;-0.40;99.90
34492;DHT22;20737;49.908;8.126;2022-12-18T11:58:36;-0.30;99.90
34492;DHT22;20737;49.908;8.126;2022-12-18T12:01:16;-0.40;99.90
34492;DHT22;20737;49.908;8.126;2022-12-18T12:04:08;-0.60;99.90
34492;DHT22;20737;49.908;8.126;2022-12-18T12:06:44;-0.80;99.90
34492;DHT22;20737;49.908;8.126;2022-12-18T12:09:17;-1.00;99.90
34492;DHT22;20737;49.908;8.126;2022-12-18T12:12:10;-1.20;99.90
34492;DHT22;20737;49.908;8.126;2022-12-18T12:14:49;-1.20;99.90
34492;DHT22;20737;49.908;8.126;2022-12-18T12:17:25;-1.10;99.90
34492;DHT22;20737;49.908;8.126;2022-12-18T12:20:00;-1.30;99.90
34492;DHT22;20737;49.908;8.126;2022-12-18T12:22:35;-1.20;99.90
34492;DHT22;20737;49.908;8.126;2022-12-18T12:25:25;-1.10;99.90
34492;DHT22;20737;49.908;8.126;2022-12-18T12:28:05;-1.00;99.90
34492;DHT22;20737;49.908;8.126;2022-12-18T12:30:41;-1.20;99.90
34492;DHT22;20737;49.908;8.126;2022-12-18T12:33:21;-1.30;99.90
34492;DHT22;20737;49.908;8.126;2022-12-18T12:35:57;-1.30;99.90
34492;DHT22;20737;49.908;8.126;2022-12-18T12:38:30;-1.20;99.90
34492;DHT22;20737;49.908;8.126;2022-12-18T12:40:59;-1.30;99.90
34492;DHT22;20737;49.908;8.126;2022-12-18T12:43:35;-1.40;99.90
34492;DHT22;20737;49.908;8.126;2022-12-18T12:46:04;-1.40;99.90
34492;DHT22;20737;49.908;8.126;2022-12-18T12:48:35;-1.40;99.90
34492;DHT22;20737;49.908;8.126;2022-12-18T12:51:11;-1.40;99.90
34492;DHT22;20737;49.908;8.126;2022-12-18T12:53:39;-1.40;99.90
34492;DHT22;20737;49.908;8.126;2022-12-18T12:56:08;-1.40;99.90
34492;DHT22;20737;49.908;8.126;2022-12-18T12:58:45;-1.50;99.90
34492;DHT22;20737;49.908;8.126;2022-12-18T13:01:21;-1.50;99.90
34492;DHT22;20737;49.908;8.126;2022-12-18T13:03:58;-1.60;99.90
34492;DHT22;20737;49.908;8.126;2022-12-18T13:06:37;-1.40;99.90
34492;DHT22;20737;49.908;8.126;2022-12-18T13:09:04;-1.60;99.90
34492;DHT22;20737;49.908;8.126;2022-12-18T13:11:35;-1.60;99.90
34492;DHT22;20737;49.908;8.126;2022-12-18T13:14:32;-1.60;99.90
34492;DHT22;20737;49.908;8.126;2022-12-18T13:17:17;-1.80;99.90
34492;DHT22;20737;49.908;8.126;2022-12-18T13:20:04;-1.70;99.90
34492;DHT22;20737;49.908;8.126;2022-12-18T13:22:34;-1.60;99.90
34492;DHT22;20737;49.908;8.126;2022-12-18T13:25:01;-1.60;99.90
34492;DHT22;20737;49.908;8.126;2022-12-18T13:28:06;-1.60;99.90
34492;DHT22;20737;49.908;8.126;2022-12-18T13:30:50;-1.70;99.90
34492;DHT22;20737;49.908;8.126;2022-12-18T13:33:47;-1.70;99.90
34492;DHT22;20737;49.908;8.126;2022-12-18T13:36:33;-1.90;99.90
34492;DHT22;20737;49.908;8.126;2022-12-18T13:41:53;-2.00;99.90
34492;DHT22;20737;49.908;8.126;2022-12-18T13:44:28;-1.90;99.90
34492;DHT22;20737;49.908;8.126;2022-12-18T13:46:58;-2.10;99.90
34492;DHT22;20737;49.908;8.126;2022-12-18T13:49:30;-2.20;99.90
34492;DHT22;20737;49.908;8.126;2022-12-18T13:51:59;-2.20;99.90
34492;DHT22;20737;49.908;8.126;2022-12-18T13:54:32;-2.20;99.90
34492;DHT22;20737;49.908;8.126;2022-12-18T13:57:00;-2.20;99.90
34492;DHT22;20737;49.908;8.126;2022-12-18T13:59:34;-2.30;99.90
34492;DHT22;20737;49.908;8.126;2022-12-18T14:02:13;-2.40;99.90
34492;DHT22;20737;49.908;8.126;2022-12-18T14:04:40;-2.40;99.90
34492;DHT22;20737;49.908;8.126;2022-12-18T14:07:12;-2.30;99.90
34492;DHT22;20737;49.908;8.126;2022-12-18T14:09:42;-2.50;99.90
34492;DHT22;20737;49.908;8.126;2022-12-18T14:12:15;-2.60;99.90
34492;DHT22;20737;49.908;8.126;2022-12-18T14:15:00;-2.70;99.90
34492;DHT22;20737;49.908;8.126;2022-12-18T14:17:28;-2.80;99.90
34492;DHT22;20737;49.908;8.126;2022-12-18T14:19:57;-2.70;99.90
34492;DHT22;20737;49.908;8.126;2022-12-18T14:22:25;-2.70;99.90
34492;DHT22;20737;49.908;8.126;2022-12-18T14:25:16;-2.80;99.90
34492;DHT22;20737;49.908;8.126;2022-12-18T14:27:44;-2.80;99.90
34492;DHT22;20737;49.908;8.126;2022-12-18T14:30:26;-2.80;99.90
34492;DHT22;20737;49.908;8.126;2022-12-18T14:33:10;-2.90;99.90
34492;DHT22;20737;49.908;8.126;2022-12-18T14:35:39;-2.90;99.90
34492;DHT22;20737;49.908;8.126;2022-12-18T14:38:28;-3.00;99.90
34492;DHT22;20737;49.908;8.126;2022-12-18T14:41:00;-3.10;99.90
34492;DHT22;20737;49.908;8.126;2022-12-18T14:43:32;-3.10;99.90
34492;DHT22;20737;49.908;8.126;2022-12-18T14:45:59;-3.10;99.90
34492;DHT22;20737;49.908;8.126;2022-12-18T14:48:39;-3.20;99.90
34492;DHT22;20737;49.908;8.126;2022-12-18T14:51:15;-3.20;99.90
34492;DHT22;20737;49.908;8.126;2022-12-18T14:53:45;-3.30;99.90
34492;DHT22;20737;49.908;8.126;2022-12-18T14:56:15;-3.30;99.90
34492;DHT22;20737;49.908;8.126;2022-12-18T14:58:50;-3.30;99.90
34492;DHT22;20737;49.908;8.126;2022-12-18T15:01:23;-3.40;99.90
34492;DHT22;20737;49.908;8.126;2022-12-18T15:03:54;-3.40;99.90
34492;DHT22;20737;49.908;8.126;2022-12-18T15:06:29;-3.60;99.90
34492;DHT22;20737;49.908;8.126;2022-12-18T15:08:58;-3.60;99.90
34492;DHT22;20737;49.908;8.126;2022-12-18T15:11:27;-3.70;99.90
34492;DHT22;20737;49.908;8.126;2022-12-18T15:13:54;-3.70;99.90
34492;DHT22;20737;49.908;8.126;2022-12-18T15:16:21;-3.70;99.90
34492;DHT22;20737;49.908;8.126;2022-12-18T15:18:50;-3.80;99.90
34492;DHT22;20737;49.908;8.126;2022-12-18T15:21:19;-3.80;99.90
34492;DHT22;20737;49.908;8.126;2022-12-18T15:23:50;-3.80;99.90
34492;DHT22;20737;49.908;8.126;2022-12-18T15:26:19;-3.90;99.90
34492;DHT22;20737;49.908;8.126;2022-12-18T15:28:49;-3.90;99.90
34492;DHT22;20737;49.908;8.126;2022-12-18T15:31:24;-3.90;99.90
34492;DHT22;20737;49.908;8.126;2022-12-18T15:34:10;-3.90;99.90
34492;DHT22;20737;49.908;8.126;2022-12-18T15:36:40;-3.90;99.90
34492;DHT22;20737;49.908;8.126;2022-12-18T15:39:09;-3.90;99.90
34492;DHT22;20737;49.908;8.126;2022-12-18T15:41:36;-3.90;99.90
34492;DHT22;20737;49.908;8.126;2022-12-18T15:44:21;-3.80;99.90
34492;DHT22;20737;49.908;8.126;2022-12-18T15:46:47;-3.80;99.90
34492;DHT22;20737;49.908;8.126;2022-12-18T15:49:14;-3.80;99.90
34492;DHT22;20737;49.908;8.126;2022-12-18T15:51:42;-3.80;99.90
34492;DHT22;20737;49.908;8.126;2022-12-18T15:54:12;-3.80;99.90
34492;DHT22;20737;49.908;8.126;2022-12-18T15:56:41;-3.80;99.90